sensor_id;sensor_type;location;lat;lon;timestamp;temperature;humidity
18624;DHT22;9441;51.420;7.036;2022-12-18T00:00:09;-3.30;99.90
18624;DHT22;9441;51.420;7.036;2022-12-18T00:01:18;-3.30;99.90
18624;DHT22;9441;51.420;7.036;2022-12-18T00:02:19;-3.20;99.90
18624;DHT22;9441;51.420;7.036;2022-12-18T00:03:22;-3.20;99.90
18624;DHT22;9441;51.420;7.036;2022-12-18T00:04:24;-3.40;99.90
18624;DHT22;9441;51.420;7.036;2022-12-18T00:05:27;-3.30;99.90
18624;DHT22;9441;51.420;7.036;2022-12-18T00:06:29;-3.40;99.90
18624;DHT22;9441;51.420;7.036;2022-12-18T00:07:31;-3.20;99.90
18624;DHT22;9441;51.420;7.036;2022-12-18T00:08:32;-3.20;99.90
18624;DHT22;9441;51.420;7.036;2022-12-18T00:09:34;-3.20;99.90
18624;DHT22;9441;51.420;7.036;2022-12-18T00:10:36;-2.90;99.90
18624;DHT22;9441;51.420;7.036;2022-12-18T00:11:38;-2.90;99.90
18624;DHT22;9441;51.420;7.036;2022-12-18T00:12:39;-3.10;99.90
18624;DHT22;9441;51.420;7.036;2022-12-18T00:13:42;-3.20;99.90
18624;DHT22;9441;51.420;7.036;2022-12-18T00:14:43;-3.40;99.90
18624;DHT22;9441;51.420;7.036;2022-12-18T00:15:45;-3.30;99.90
18624;DHT22;9441;51.420;7.036;2022-12-18T00:16:46;-3.40;99.90
18624;DHT22;9441;51.420;7.036;2022-12-18T00:17:48;-3.50;99.90
18624;DHT22;9441;51.420;7.036;2022-12-18T00:18:50;-3.50;99.90
18624;DHT22;9441;51.420;7.036;2022-12-18T00:19:53;-3.60;99.90
18624;DHT22;9441;51.420;7.036;2022-12-18T00:20:58;-3.70;99.90
18624;DHT22;9441;51.420;7.036;2022-12-18T00:21:59;-3.70;99.90
18624;DHT22;9441;51.420;7.036;2022-12-18T00:23:01;-3.70;99.90
18624;DHT22;9441;51.420;7.036;2022-12-18T00:24:03;-3.70;99.90
18624;DHT22;9441;51.420;7.036;2022-12-18T00:25:05;-3.70;99.90
18624;DHT22;9441;51.420;7.036;2022-12-18T00:26:11;-3.80;99.90
18624;DHT22;9441;51.420;7.036;2022-12-18T00:27:17;-3.80;99.90
18624;DHT22;9441;51.420;7.036;2022-12-18T00:28:18;-3.90;99.90
18624;DHT22;9441;51.420;7.036;2022-12-18T00:29:21;-4.00;99.90
18624;DHT22;9441;51.420;7.036;2022-12-18T00:30:22;-4.00;99.90
18624;DHT22;9441;51.420;7.036;2022-12-18T00:31:25;-4.10;99.90
18624;DHT22;9441;51.420;7.036;2022-12-18T00:32:27;-4.10;99.90
18624;DHT22;9441;51.420;7.036;2022-12-18T00:33:29;-4.10;99.90
18624;DHT22;9441;51.420;7.036;2022-12-18T00:34:31;-4.10;99.90
18624;DHT22;9441;51.420;7.036;2022-12-18T00:35:33;-4.10;99.90
18624;DHT22;9441;51.420;7.036;2022-12-18T00:36:34;-4.10;99.90
18624;DHT22;9441;51.420;7.036;2022-12-18T00:37:36;-4.30;99.90
18624;DHT22;9441;51.420;7.036;2022-12-18T00:38:38;-4.30;99.90
18624;DHT22;9441;51.420;7.036;2022-12-18T00:39:40;-4.30;99.90
18624;DHT22;9441;51.420;7.036;2022-12-18T00:40:41;-4.20;99.90
18624;DHT22;9441;51.420;7.036;2022-12-18T00:41:45;-4.20;99.90
18624;DHT22;9441;51.420;7.036;2022-12-18T00:43:05;-4.10;99.90
18624;DHT22;9441;51.420;7.036;2022-12-18T00:44:11;-4.10;99.90
18624;DHT22;9441;51.420;7.036;2022-12-18T00:45:13;-4.00;99.90
18624;DHT22;9441;51.420;7.036;2022-12-18T00:46:14;-4.00;99.90
18624;DHT22;9441;51.420;7.036;2022-12-18T00:47:16;-4.10;99.90
18624;DHT22;9441;51.420;7.036;2022-12-18T00:48:17;-4.20;99.90
18624;DHT22;9441;51.420;7.036;2022-12-18T00:49:20;-4.20;99.90
18624;DHT22;9441;51.420;7.036;2022-12-18T00:50:22;-4.10;99.90
18624;DHT22;9441;51.420;7.036;2022-12-18T00:51:24;-4.00;99.90
18624;DHT22;9441;51.420;7.036;2022-12-18T00:52:25;-4.00;99.90
18624;DHT22;9441;51.420;7.036;2022-12-18T00:53:27;-4.10;99.90
18624;DHT22;9441;51.420;7.036;2022-12-18T00:54:30;-4.10;99.90
18624;DHT22;9441;51.420;7.036;2022-12-18T00:55:32;-3.90;99.90
18624;DHT22;9441;51.420;7.036;2022-12-18T00:56:35;-4.00;99.90
18624;DHT22;9441;51.420;7.036;2022-12-18T00:57:39;-4.10;99.90
18624;DHT22;9441;51.420;7.036;2022-12-18T00:58:40;-3.90;99.90
18624;DHT22;9441;51.420;7.036;2022-12-18T00:59:42;-4.00;99.90
18624;DHT22;9441;51.420;7.036;2022-12-18T01:00:43;-4.10;99.90
18624;DHT22;9441;51.420;7.036;2022-12-18T01:01:46;-4.20;99.90
18624;DHT22;9441;51.420;7.036;2022-12-18T01:02:47;-4.20;99.90
18624;DHT22;9441;51.420;7.036;2022-12-18T01:03:49;-4.20;99.90
18624;DHT22;9441;51.420;7.036;2022-12-18T01:04:50;-4.20;99.90
18624;DHT22;9441;51.420;7.036;2022-12-18T01:05:54;-4.30;99.90
18624;DHT22;9441;51.420;7.036;2022-12-18T01:06:55;-4.30;99.90
18624;DHT22;9441;51.420;7.036;2022-12-18T01:07:57;-4.20;99.90
18624;DHT22;9441;51.420;7.036;2022-12-18T01:08:59;-4.10;99.90
18624;DHT22;9441;51.420;7.036;2022-12-18T01:10:01;-4.20;99.90
18624;DHT22;9441;51.420;7.036;2022-12-18T01:11:07;-4.20;99.90
18624;DHT22;9441;51.420;7.036;2022-12-18T01:12:09;-4.20;99.90
18624;DHT22;9441;51.420;7.036;2022-12-18T01:13:11;-4.40;99.90
18624;DHT22;9441;51.420;7.036;2022-12-18T01:14:13;-4.30;99.90
18624;DHT22;9441;51.420;7.036;2022-12-18T01:15:15;-4.30;99.90
18624;DHT22;9441;51.420;7.036;2022-12-18T01:16:17;-4.30;99.90
18624;DHT22;9441;51.420;7.036;2022-12-18T01:17:19;-4.30;99.90
18624;DHT22;9441;51.420;7.036;2022-12-18T01:18:21;-4.30;99.90
18624;DHT22;9441;51.420;7.036;2022-12-18T01:19:22;-4.30;99.90
18624;DHT22;9441;51.420;7.036;2022-12-18T01:20:24;-4.30;99.90
18624;DHT22;9441;51.420;7.036;2022-12-18T01:21:25;-4.30;99.90
18624;DHT22;9441;51.420;7.036;2022-12-18T01:22:27;-4.40;99.90
18624;DHT22;9441;51.420;7.036;2022-12-18T01:23:28;-4.30;99.90
18624;DHT22;9441;51.420;7.036;2022-12-18T01:24:30;-4.00;99.90
18624;DHT22;9441;51.420;7.036;2022-12-18T01:25:31;-4.00;99.90
18624;DHT22;9441;51.420;7.036;2022-12-18T01:26:33;-4.10;99.90
18624;DHT22;9441;51.420;7.036;2022-12-18T01:27:34;-4.00;99.90
18624;DHT22;9441;51.420;7.036;2022-12-18T01:28:40;-4.10;99.90
18624;DHT22;9441;51.420;7.036;2022-12-18T01:29:41;-4.10;99.90
18624;DHT22;9441;51.420;7.036;2022-12-18T01:30:43;-4.10;99.90
18624;DHT22;9441;51.420;7.036;2022-12-18T01:31:44;-4.00;99.90
18624;DHT22;9441;51.420;7.036;2022-12-18T01:32:46;-3.90;99.90
18624;DHT22;9441;51.420;7.036;2022-12-18T01:33:47;-3.90;99.90
18624;DHT22;9441;51.420;7.036;2022-12-18T01:34:49;-3.20;99.90
18624;DHT22;9441;51.420;7.036;2022-12-18T01:35:50;-3.20;99.90
18624;DHT22;9441;51.420;7.036;2022-12-18T01:36:52;-3.60;99.90
18624;DHT22;9441;51.420;7.036;2022-12-18T01:37:54;-3.70;99.90
18624;DHT22;9441;51.420;7.036;2022-12-18T01:38:56;-3.50;99.90
18624;DHT22;9441;51.420;7.036;2022-12-18T01:39:57;-3.30;99.90
18624;DHT22;9441;51.420;7.036;2022-12-18T01:41:00;-3.60;99.90
18624;DHT22;9441;51.420;7.036;2022-12-18T01:42:02;-3.70;99.90
18624;DHT22;9441;51.420;7.036;2022-12-18T01:43:09;-3.80;99.90
18624;DHT22;9441;51.420;7.036;2022-12-18T01:45:46;-3.80;99.90
18624;DHT22;9441;51.420;7.036;2022-12-18T01:46:47;-3.80;99.90
18624;DHT22;9441;51.420;7.036;2022-12-18T01:47:52;-3.60;99.90
18624;DHT22;9441;51.420;7.036;2022-12-18T01:48:56;-3.60;99.90
18624;DHT22;9441;51.420;7.036;2022-12-18T01:50:02;-3.40;99.90
18624;DHT22;9441;51.420;7.036;2022-12-18T01:51:04;-3.40;99.90
18624;DHT22;9441;51.420;7.036;2022-12-18T01:52:07;-3.60;99.90
18624;DHT22;9441;51.420;7.036;2022-12-18T01:53:11;-3.70;99.90
18624;DHT22;9441;51.420;7.036;2022-12-18T01:54:14;-3.60;99.90
18624;DHT22;9441;51.420;7.036;2022-12-18T01:55:18;-3.60;99.90
18624;DHT22;9441;51.420;7.036;2022-12-18T01:56:21;-3.70;99.90
18624;DHT22;9441;51.420;7.036;2022-12-18T01:57:24;-3.80;99.90
18624;DHT22;9441;51.420;7.036;2022-12-18T01:58:32;-3.70;99.90
18624;DHT22;9441;51.420;7.036;2022-12-18T01:59:35;-3.70;99.90
18624;DHT22;9441;51.420;7.036;2022-12-18T02:00:38;-3.70;99.90
18624;DHT22;9441;51.420;7.036;2022-12-18T02:01:40;-3.70;99.90
18624;DHT22;9441;51.420;7.036;2022-12-18T02:02:45;-3.50;99.90
18624;DHT22;9441;51.420;7.036;2022-12-18T02:03:47;-3.30;99.90
18624;DHT22;9441;51.420;7.036;2022-12-18T02:04:50;-3.40;99.90
18624;DHT22;9441;51.420;7.036;2022-12-18T02:05:58;-3.50;99.90
18624;DHT22;9441;51.420;7.036;2022-12-18T02:07:07;-3.50;99.90
18624;DHT22;9441;51.420;7.036;2022-12-18T02:08:14;-3.50;99.90
18624;DHT22;9441;51.420;7.036;2022-12-18T02:09:21;-3.60;99.90
18624;DHT22;9441;51.420;7.036;2022-12-18T02:10:30;-3.40;99.90
18624;DHT22;9441;51.420;7.036;2022-12-18T02:11:44;-3.30;99.90
18624;DHT22;9441;51.420;7.036;2022-12-18T02:12:54;-3.30;99.90
18624;DHT22;9441;51.420;7.036;2022-12-18T02:14:04;-3.30;99.90
18624;DHT22;9441;51.420;7.036;2022-12-18T02:15:13;-3.40;99.90
18624;DHT22;9441;51.420;7.036;2022-12-18T02:16:20;-3.30;99.90
18624;DHT22;9441;51.420;7.036;2022-12-18T02:17:32;-3.10;99.90
18624;DHT22;9441;51.420;7.036;2022-12-18T02:18:41;-2.90;99.90
18624;DHT22;9441;51.420;7.036;2022-12-18T02:19:58;-2.90;99.90
18624;DHT22;9441;51.420;7.036;2022-12-18T02:21:12;-2.90;99.90
18624;DHT22;9441;51.420;7.036;2022-12-18T02:22:26;-3.20;99.90
18624;DHT22;9441;51.420;7.036;2022-12-18T02:23:44;-3.00;99.90
18624;DHT22;9441;51.420;7.036;2022-12-18T02:24:54;-2.70;99.90
18624;DHT22;9441;51.420;7.036;2022-12-18T02:26:13;-2.80;99.90
18624;DHT22;9441;51.420;7.036;2022-12-18T02:27:18;-2.70;99.90
18624;DHT22;9441;51.420;7.036;2022-12-18T02:28:25;-2.60;99.90
18624;DHT22;9441;51.420;7.036;2022-12-18T02:29:30;-2.80;99.90
18624;DHT22;9441;51.420;7.036;2022-12-18T02:30:36;-2.60;99.90
18624;DHT22;9441;51.420;7.036;2022-12-18T02:31:42;-2.60;99.90
18624;DHT22;9441;51.420;7.036;2022-12-18T02:32:48;-2.40;99.90
18624;DHT22;9441;51.420;7.036;2022-12-18T02:33:51;-2.50;99.90
18624;DHT22;9441;51.420;7.036;2022-12-18T02:34:59;-2.60;99.90
18624;DHT22;9441;51.420;7.036;2022-12-18T02:36:03;-2.70;99.90
18624;DHT22;9441;51.420;7.036;2022-12-18T02:37:10;-2.70;99.90
18624;DHT22;9441;51.420;7.036;2022-12-18T02:38:12;-2.70;99.90
18624;DHT22;9441;51.420;7.036;2022-12-18T02:39:19;-2.60;99.90
18624;DHT22;9441;51.420;7.036;2022-12-18T02:40:31;-2.70;99.90
18624;DHT22;9441;51.420;7.036;2022-12-18T02:41:36;-2.70;99.90
18624;DHT22;9441;51.420;7.036;2022-12-18T02:42:38;-2.60;99.90
18624;DHT22;9441;51.420;7.036;2022-12-18T02:43:46;-2.40;99.90
18624;DHT22;9441;51.420;7.036;2022-12-18T02:44:51;-2.30;99.90
18624;DHT22;9441;51.420;7.036;2022-12-18T02:46:00;-2.30;99.90
18624;DHT22;9441;51.420;7.036;2022-12-18T02:47:04;-2.50;99.90
18624;DHT22;9441;51.420;7.036;2022-12-18T02:48:08;-2.50;99.90
18624;DHT22;9441;51.420;7.036;2022-12-18T02:49:30;-2.40;99.90
18624;DHT22;9441;51.420;7.036;2022-12-18T02:50:38;-2.40;99.90
18624;DHT22;9441;51.420;7.036;2022-12-18T02:51:50;-2.40;99.90
18624;DHT22;9441;51.420;7.036;2022-12-18T02:53:01;-2.40;99.90
18624;DHT22;9441;51.420;7.036;2022-12-18T02:54:10;-2.20;99.90
18624;DHT22;9441;51.420;7.036;2022-12-18T02:55:23;-2.10;99.90
18624;DHT22;9441;51.420;7.036;2022-12-18T02:56:32;-2.10;99.90
18624;DHT22;9441;51.420;7.036;2022-12-18T02:57:42;-2.30;99.90
18624;DHT22;9441;51.420;7.036;2022-12-18T02:58:51;-2.30;99.90
18624;DHT22;9441;51.420;7.036;2022-12-18T03:00:08;-2.10;99.90
18624;DHT22;9441;51.420;7.036;2022-12-18T03:01:15;-2.10;99.90
18624;DHT22;9441;51.420;7.036;2022-12-18T03:02:22;-2.00;99.90
18624;DHT22;9441;51.420;7.036;2022-12-18T03:03:31;-2.20;99.90
18624;DHT22;9441;51.420;7.036;2022-12-18T03:04:40;-2.20;79.50
18624;DHT22;9441;51.420;7.036;2022-12-18T03:05:45;-2.40;1.00
18624;DHT22;9441;51.420;7.036;2022-12-18T03:06:55;-2.60;1.00
18624;DHT22;9441;51.420;7.036;2022-12-18T03:08:03;-2.70;1.00
18624;DHT22;9441;51.420;7.036;2022-12-18T03:09:14;-2.80;1.00
18624;DHT22;9441;51.420;7.036;2022-12-18T03:10:19;-2.70;1.00
18624;DHT22;9441;51.420;7.036;2022-12-18T03:11:24;-2.80;1.00
18624;DHT22;9441;51.420;7.036;2022-12-18T03:12:46;-3.00;1.00
18624;DHT22;9441;51.420;7.036;2022-12-18T03:13:52;-2.70;99.90
18624;DHT22;9441;51.420;7.036;2022-12-18T03:15:01;-2.80;99.90
18624;DHT22;9441;51.420;7.036;2022-12-18T03:16:06;-2.90;99.90
18624;DHT22;9441;51.420;7.036;2022-12-18T03:17:11;-2.90;99.90
18624;DHT22;9441;51.420;7.036;2022-12-18T03:18:17;-3.00;99.90
18624;DHT22;9441;51.420;7.036;2022-12-18T03:19:23;-3.00;99.90
18624;DHT22;9441;51.420;7.036;2022-12-18T03:20:29;-3.20;99.90
18624;DHT22;9441;51.420;7.036;2022-12-18T03:21:35;-3.20;99.90
18624;DHT22;9441;51.420;7.036;2022-12-18T03:22:38;-3.20;99.90
18624;DHT22;9441;51.420;7.036;2022-12-18T03:23:49;-3.40;99.90
18624;DHT22;9441;51.420;7.036;2022-12-18T03:24:51;-3.30;99.90
18624;DHT22;9441;51.420;7.036;2022-12-18T03:25:58;-3.30;99.90
18624;DHT22;9441;51.420;7.036;2022-12-18T03:27:03;-3.30;99.90
18624;DHT22;9441;51.420;7.036;2022-12-18T03:28:12;-3.20;99.90
18624;DHT22;9441;51.420;7.036;2022-12-18T03:29:19;-3.20;99.90
18624;DHT22;9441;51.420;7.036;2022-12-18T03:30:22;-3.40;99.90
18624;DHT22;9441;51.420;7.036;2022-12-18T03:31:26;-3.30;99.90
18624;DHT22;9441;51.420;7.036;2022-12-18T03:32:31;-3.20;99.90
18624;DHT22;9441;51.420;7.036;2022-12-18T03:33:37;-3.10;99.90
18624;DHT22;9441;51.420;7.036;2022-12-18T03:34:41;-3.30;99.90
18624;DHT22;9441;51.420;7.036;2022-12-18T03:35:47;-3.20;99.90
18624;DHT22;9441;51.420;7.036;2022-12-18T03:36:48;-3.10;99.90
18624;DHT22;9441;51.420;7.036;2022-12-18T03:37:50;-3.30;99.90
18624;DHT22;9441;51.420;7.036;2022-12-18T03:38:52;-3.20;99.90
18624;DHT22;9441;51.420;7.036;2022-12-18T03:39:56;-3.30;99.90
18624;DHT22;9441;51.420;7.036;2022-12-18T03:41:05;-3.20;99.90
18624;DHT22;9441;51.420;7.036;2022-12-18T03:42:23;-3.00;99.90
18624;DHT22;9441;51.420;7.036;2022-12-18T03:43:40;-3.00;99.90
18624;DHT22;9441;51.420;7.036;2022-12-18T03:44:49;-3.00;99.90
18624;DHT22;9441;51.420;7.036;2022-12-18T03:45:59;-2.90;99.90
18624;DHT22;9441;51.420;7.036;2022-12-18T03:47:07;-2.90;99.90
18624;DHT22;9441;51.420;7.036;2022-12-18T03:48:17;-2.90;99.90
18624;DHT22;9441;51.420;7.036;2022-12-18T03:49:25;-3.10;99.90
18624;DHT22;9441;51.420;7.036;2022-12-18T03:50:36;-3.00;99.90
18624;DHT22;9441;51.420;7.036;2022-12-18T03:51:43;-3.10;99.90
18624;DHT22;9441;51.420;7.036;2022-12-18T03:52:51;-3.00;99.90
18624;DHT22;9441;51.420;7.036;2022-12-18T03:53:58;-2.90;99.90
18624;DHT22;9441;51.420;7.036;2022-12-18T03:55:07;-2.90;99.90
18624;DHT22;9441;51.420;7.036;2022-12-18T03:56:13;-3.00;99.90
18624;DHT22;9441;51.420;7.036;2022-12-18T03:57:19;-2.90;99.90
18624;DHT22;9441;51.420;7.036;2022-12-18T03:58:25;-2.90;99.90
18624;DHT22;9441;51.420;7.036;2022-12-18T03:59:37;-2.80;99.90
18624;DHT22;9441;51.420;7.036;2022-12-18T04:00:42;-2.70;99.90
18624;DHT22;9441;51.420;7.036;2022-12-18T04:01:47;-2.60;99.90
18624;DHT22;9441;51.420;7.036;2022-12-18T04:02:52;-2.50;99.90
18624;DHT22;9441;51.420;7.036;2022-12-18T04:04:00;-2.50;40.00
18624;DHT22;9441;51.420;7.036;2022-12-18T04:05:07;-2.70;1.00
18624;DHT22;9441;51.420;7.036;2022-12-18T04:06:13;-2.90;1.00
18624;DHT22;9441;51.420;7.036;2022-12-18T04:07:17;-2.80;1.00
18624;DHT22;9441;51.420;7.036;2022-12-18T04:08:19;-2.70;1.00
18624;DHT22;9441;51.420;7.036;2022-12-18T04:09:32;-2.80;1.00
18624;DHT22;9441;51.420;7.036;2022-12-18T04:10:33;-2.90;1.00
18624;DHT22;9441;51.420;7.036;2022-12-18T04:11:39;-3.10;1.00
18624;DHT22;9441;51.420;7.036;2022-12-18T04:12:41;-2.90;1.00
18624;DHT22;9441;51.420;7.036;2022-12-18T04:13:45;-2.90;1.00
18624;DHT22;9441;51.420;7.036;2022-12-18T04:14:56;-3.00;1.00
18624;DHT22;9441;51.420;7.036;2022-12-18T04:15:58;-3.00;1.00
18624;DHT22;9441;51.420;7.036;2022-12-18T04:16:59;-3.10;1.00
18624;DHT22;9441;51.420;7.036;2022-12-18T04:18:05;-3.10;1.00
18624;DHT22;9441;51.420;7.036;2022-12-18T04:19:13;-3.20;1.00
18624;DHT22;9441;51.420;7.036;2022-12-18T04:20:18;-3.30;1.00
18624;DHT22;9441;51.420;7.036;2022-12-18T04:21:20;-3.20;1.00
18624;DHT22;9441;51.420;7.036;2022-12-18T04:22:24;-3.00;1.00
18624;DHT22;9441;51.420;7.036;2022-12-18T04:23:29;-3.00;1.00
18624;DHT22;9441;51.420;7.036;2022-12-18T04:24:33;-2.90;1.00
18624;DHT22;9441;51.420;7.036;2022-12-18T04:25:41;-2.80;1.00
18624;DHT22;9441;51.420;7.036;2022-12-18T04:26:47;-2.90;1.00
18624;DHT22;9441;51.420;7.036;2022-12-18T04:27:53;-2.90;1.00
18624;DHT22;9441;51.420;7.036;2022-12-18T04:28:55;-2.90;1.00
18624;DHT22;9441;51.420;7.036;2022-12-18T04:29:57;-2.80;1.00
18624;DHT22;9441;51.420;7.036;2022-12-18T04:30:59;-3.00;1.00
18624;DHT22;9441;51.420;7.036;2022-12-18T04:32:00;-2.80;1.00
18624;DHT22;9441;51.420;7.036;2022-12-18T04:33:08;-2.80;1.00
18624;DHT22;9441;51.420;7.036;2022-12-18T04:34:09;-2.90;1.00
18624;DHT22;9441;51.420;7.036;2022-12-18T04:35:18;-2.90;1.00
18624;DHT22;9441;51.420;7.036;2022-12-18T04:36:19;-2.90;1.00
18624;DHT22;9441;51.420;7.036;2022-12-18T04:37:21;-3.00;99.90
18624;DHT22;9441;51.420;7.036;2022-12-18T04:38:24;-3.00;99.90
18624;DHT22;9441;51.420;7.036;2022-12-18T04:39:34;-2.70;1.00
18624;DHT22;9441;51.420;7.036;2022-12-18T04:40:41;-2.80;1.00
18624;DHT22;9441;51.420;7.036;2022-12-18T04:41:51;-3.10;99.90
18624;DHT22;9441;51.420;7.036;2022-12-18T04:42:52;-3.10;99.90
18624;DHT22;9441;51.420;7.036;2022-12-18T04:43:54;-3.10;99.90
18624;DHT22;9441;51.420;7.036;2022-12-18T04:44:57;-3.10;99.90
18624;DHT22;9441;51.420;7.036;2022-12-18T04:46:03;-3.30;83.80
18624;DHT22;9441;51.420;7.036;2022-12-18T04:47:04;-3.30;66.40
18624;DHT22;9441;51.420;7.036;2022-12-18T04:48:06;-3.30;99.90
18624;DHT22;9441;51.420;7.036;2022-12-18T04:49:07;-3.30;99.90
18624;DHT22;9441;51.420;7.036;2022-12-18T04:50:11;-3.30;99.90
18624;DHT22;9441;51.420;7.036;2022-12-18T04:51:12;-3.40;78.60
18624;DHT22;9441;51.420;7.036;2022-12-18T04:52:14;-3.50;82.80
18624;DHT22;9441;51.420;7.036;2022-12-18T04:53:15;-3.50;99.90
18624;DHT22;9441;51.420;7.036;2022-12-18T04:54:17;-3.60;99.90
18624;DHT22;9441;51.420;7.036;2022-12-18T04:55:25;-3.70;99.90
18624;DHT22;9441;51.420;7.036;2022-12-18T04:56:27;-3.70;99.90
18624;DHT22;9441;51.420;7.036;2022-12-18T04:57:28;-3.70;99.90
18624;DHT22;9441;51.420;7.036;2022-12-18T04:58:30;-3.80;99.90
18624;DHT22;9441;51.420;7.036;2022-12-18T04:59:31;-3.70;99.90
18624;DHT22;9441;51.420;7.036;2022-12-18T05:00:34;-3.70;1.00
18624;DHT22;9441;51.420;7.036;2022-12-18T05:01:35;-3.70;1.00
18624;DHT22;9441;51.420;7.036;2022-12-18T05:02:37;-3.80;1.00
18624;DHT22;9441;51.420;7.036;2022-12-18T05:03:39;-3.80;1.00
18624;DHT22;9441;51.420;7.036;2022-12-18T05:04:41;-3.80;1.00
18624;DHT22;9441;51.420;7.036;2022-12-18T05:05:42;-3.50;1.00
18624;DHT22;9441;51.420;7.036;2022-12-18T05:06:44;-3.30;46.60
18624;DHT22;9441;51.420;7.036;2022-12-18T05:07:45;-3.40;1.00
18624;DHT22;9441;51.420;7.036;2022-12-18T05:08:47;-3.50;1.00
18624;DHT22;9441;51.420;7.036;2022-12-18T05:09:48;-3.60;1.00
18624;DHT22;9441;51.420;7.036;2022-12-18T05:10:50;-3.50;1.00
18624;DHT22;9441;51.420;7.036;2022-12-18T05:11:58;-3.60;1.00
18624;DHT22;9441;51.420;7.036;2022-12-18T05:13:00;-3.60;1.00
18624;DHT22;9441;51.420;7.036;2022-12-18T05:14:01;-3.60;1.00
18624;DHT22;9441;51.420;7.036;2022-12-18T05:15:04;-3.40;23.10
18624;DHT22;9441;51.420;7.036;2022-12-18T05:16:07;-3.30;90.40
18624;DHT22;9441;51.420;7.036;2022-12-18T05:17:09;-3.30;25.30
18624;DHT22;9441;51.420;7.036;2022-12-18T05:18:10;-3.30;36.80
18624;DHT22;9441;51.420;7.036;2022-12-18T05:19:12;-3.30;1.00
18624;DHT22;9441;51.420;7.036;2022-12-18T05:20:13;-3.30;1.00
18624;DHT22;9441;51.420;7.036;2022-12-18T05:21:15;-3.20;1.00
18624;DHT22;9441;51.420;7.036;2022-12-18T05:22:17;-3.20;1.00
18624;DHT22;9441;51.420;7.036;2022-12-18T05:23:20;-3.20;1.00
18624;DHT22;9441;51.420;7.036;2022-12-18T05:24:21;-3.10;1.00
18624;DHT22;9441;51.420;7.036;2022-12-18T05:25:23;-3.10;1.00
18624;DHT22;9441;51.420;7.036;2022-12-18T05:26:25;-3.20;1.00
18624;DHT22;9441;51.420;7.036;2022-12-18T05:27:27;-3.20;1.00
18624;DHT22;9441;51.420;7.036;2022-12-18T05:28:30;-3.20;1.00
18624;DHT22;9441;51.420;7.036;2022-12-18T05:29:33;-3.10;1.00
18624;DHT22;9441;51.420;7.036;2022-12-18T05:30:34;-3.20;1.00
18624;DHT22;9441;51.420;7.036;2022-12-18T05:31:37;-3.20;1.00
18624;DHT22;9441;51.420;7.036;2022-12-18T05:32:39;-3.20;1.00
18624;DHT22;9441;51.420;7.036;2022-12-18T05:33:41;-3.20;1.00
18624;DHT22;9441;51.420;7.036;2022-12-18T05:34:43;-3.30;1.00
18624;DHT22;9441;51.420;7.036;2022-12-18T05:35:49;-3.30;99.90
18624;DHT22;9441;51.420;7.036;2022-12-18T05:36:50;-3.60;60.20
18624;DHT22;9441;51.420;7.036;2022-12-18T05:37:52;-3.60;99.90
18624;DHT22;9441;51.420;7.036;2022-12-18T05:38:53;-3.60;99.90
18624;DHT22;9441;51.420;7.036;2022-12-18T05:39:56;-3.50;99.90
18624;DHT22;9441;51.420;7.036;2022-12-18T05:40:57;-3.60;99.90
18624;DHT22;9441;51.420;7.036;2022-12-18T05:41:59;-3.60;99.90
18624;DHT22;9441;51.420;7.036;2022-12-18T05:43:00;-3.50;99.90
18624;DHT22;9441;51.420;7.036;2022-12-18T05:44:09;-3.50;99.90
18624;DHT22;9441;51.420;7.036;2022-12-18T05:45:12;-3.70;99.90
18624;DHT22;9441;51.420;7.036;2022-12-18T05:46:14;-3.80;99.90
18624;DHT22;9441;51.420;7.036;2022-12-18T05:47:19;-3.80;99.90
18624;DHT22;9441;51.420;7.036;2022-12-18T05:48:21;-3.70;99.90
18624;DHT22;9441;51.420;7.036;2022-12-18T05:49:23;-3.70;99.90
18624;DHT22;9441;51.420;7.036;2022-12-18T05:50:24;-3.80;99.90
18624;DHT22;9441;51.420;7.036;2022-12-18T05:51:26;-4.00;88.60
18624;DHT22;9441;51.420;7.036;2022-12-18T05:52:27;-4.00;15.50
18624;DHT22;9441;51.420;7.036;2022-12-18T05:53:29;-4.10;70.60
18624;DHT22;9441;51.420;7.036;2022-12-18T05:54:30;-4.10;99.90
18624;DHT22;9441;51.420;7.036;2022-12-18T05:55:33;-4.10;99.90
18624;DHT22;9441;51.420;7.036;2022-12-18T05:56:34;-4.00;1.00
18624;DHT22;9441;51.420;7.036;2022-12-18T05:57:36;-4.10;1.00
18624;DHT22;9441;51.420;7.036;2022-12-18T05:58:37;-4.10;1.00
18624;DHT22;9441;51.420;7.036;2022-12-18T05:59:40;-4.10;1.00
18624;DHT22;9441;51.420;7.036;2022-12-18T06:00:43;-4.10;1.00
18624;DHT22;9441;51.420;7.036;2022-12-18T06:01:45;-4.00;1.00
18624;DHT22;9441;51.420;7.036;2022-12-18T06:02:48;-4.00;1.00
18624;DHT22;9441;51.420;7.036;2022-12-18T06:03:50;-4.10;1.00
18624;DHT22;9441;51.420;7.036;2022-12-18T06:04:51;-4.10;1.00
18624;DHT22;9441;51.420;7.036;2022-12-18T06:05:53;-4.10;1.00
18624;DHT22;9441;51.420;7.036;2022-12-18T06:06:54;-4.10;1.00
18624;DHT22;9441;51.420;7.036;2022-12-18T06:07:56;-4.10;1.00
18624;DHT22;9441;51.420;7.036;2022-12-18T06:08:57;-4.00;1.00
18624;DHT22;9441;51.420;7.036;2022-12-18T06:09:59;-4.10;1.00
18624;DHT22;9441;51.420;7.036;2022-12-18T06:11:01;-4.00;1.00
18624;DHT22;9441;51.420;7.036;2022-12-18T06:12:03;-4.10;1.00
18624;DHT22;9441;51.420;7.036;2022-12-18T06:13:05;-4.10;1.00
18624;DHT22;9441;51.420;7.036;2022-12-18T06:14:09;-4.00;1.00
18624;DHT22;9441;51.420;7.036;2022-12-18T06:15:10;-4.10;1.00
18624;DHT22;9441;51.420;7.036;2022-12-18T06:16:12;-4.20;1.00
18624;DHT22;9441;51.420;7.036;2022-12-18T06:17:13;-4.20;1.00
18624;DHT22;9441;51.420;7.036;2022-12-18T06:18:17;-4.20;1.00
18624;DHT22;9441;51.420;7.036;2022-12-18T06:19:18;-4.10;1.00
18624;DHT22;9441;51.420;7.036;2022-12-18T06:20:20;-4.20;1.00
18624;DHT22;9441;51.420;7.036;2022-12-18T06:21:21;-4.20;1.00
18624;DHT22;9441;51.420;7.036;2022-12-18T06:22:23;-4.20;1.00
18624;DHT22;9441;51.420;7.036;2022-12-18T06:23:25;-4.20;1.00
18624;DHT22;9441;51.420;7.036;2022-12-18T06:24:27;-4.20;1.00
18624;DHT22;9441;51.420;7.036;2022-12-18T06:25:28;-4.20;1.00
18624;DHT22;9441;51.420;7.036;2022-12-18T06:26:30;-4.30;1.00
18624;DHT22;9441;51.420;7.036;2022-12-18T06:27:31;-4.20;1.00
18624;DHT22;9441;51.420;7.036;2022-12-18T06:28:34;-4.20;1.00
18624;DHT22;9441;51.420;7.036;2022-12-18T06:29:35;-4.20;1.00
18624;DHT22;9441;51.420;7.036;2022-12-18T06:30:37;-4.30;1.00
18624;DHT22;9441;51.420;7.036;2022-12-18T06:31:38;-4.30;1.00
18624;DHT22;9441;51.420;7.036;2022-12-18T06:32:40;-4.20;1.00
18624;DHT22;9441;51.420;7.036;2022-12-18T06:33:42;-4.30;1.00
18624;DHT22;9441;51.420;7.036;2022-12-18T06:34:44;-4.30;1.00
18624;DHT22;9441;51.420;7.036;2022-12-18T06:35:46;-4.30;1.00
18624;DHT22;9441;51.420;7.036;2022-12-18T06:36:47;-4.30;1.00
18624;DHT22;9441;51.420;7.036;2022-12-18T06:37:48;-4.40;1.00
18624;DHT22;9441;51.420;7.036;2022-12-18T06:38:51;-4.40;1.00
18624;DHT22;9441;51.420;7.036;2022-12-18T06:39:52;-4.40;23.90
18624;DHT22;9441;51.420;7.036;2022-12-18T06:40:54;-4.30;99.90
18624;DHT22;9441;51.420;7.036;2022-12-18T06:41:56;-4.20;99.90
18624;DHT22;9441;51.420;7.036;2022-12-18T06:42:58;-4.20;99.90
18624;DHT22;9441;51.420;7.036;2022-12-18T06:43:59;-4.20;99.90
18624;DHT22;9441;51.420;7.036;2022-12-18T06:45:01;-4.20;99.90
18624;DHT22;9441;51.420;7.036;2022-12-18T06:46:02;-4.20;99.90
18624;DHT22;9441;51.420;7.036;2022-12-18T06:47:05;-4.20;99.90
18624;DHT22;9441;51.420;7.036;2022-12-18T06:48:06;-4.30;99.90
18624;DHT22;9441;51.420;7.036;2022-12-18T06:49:09;-4.30;99.90
18624;DHT22;9441;51.420;7.036;2022-12-18T06:50:11;-4.30;99.90
18624;DHT22;9441;51.420;7.036;2022-12-18T06:51:16;-4.30;99.90
18624;DHT22;9441;51.420;7.036;2022-12-18T06:52:17;-4.30;99.90
18624;DHT22;9441;51.420;7.036;2022-12-18T06:53:19;-4.30;99.90
18624;DHT22;9441;51.420;7.036;2022-12-18T06:54:20;-4.30;99.90